Time;durP1;ratioP1;P1;durP2;ratioP2;P2;SDS_P1;SDS_P2;PMS_P1;PMS_P2;Temp;Humidity;BMP_temperature;BMP_pressure;BME280_temperature;BME280_humidity;BME280_pressure;Samples;Min_cycle;Max_cycle;Signal;HPM_P1;HPM_P2
2023/02/13 00:00:52;;;;;;;12.05;8.23;;;7.90;99.90;;;;;;4886092;29;20056;-91
2023/02/13 00:03:18;;;;;;;28.15;17.63;;;7.90;99.90;;;;;;4884062;29;20040;-92
2023/02/13 00:05:43;;;;;;;14.93;8.98;;;7.90;99.90;;;;;;4900062;29;20059;-92
2023/02/13 00:08:09;;;;;;;17.50;11.68;;;7.90;99.90;;;;;;4902226;29;20044;-92
2023/02/13 00:10:35;;;;;;;15.40;9.75;;;7.90;99.90;;;;;;4893504;29;20052;-92
2023/02/13 00:13:04;;;;;;;15.18;9.05;;;7.90;99.90;;;;;;4885453;29;20434;-91
2023/02/13 00:15:29;;;;;;;12.05;8.00;;;7.90;99.90;;;;;;4885241;29;20051;-91
2023/02/13 00:17:55;;;;;;;13.75;8.93;;;7.90;99.90;;;;;;4898709;29;20041;-91
2023/02/13 00:20:21;;;;;;;25.48;15.68;;;7.90;99.90;;;;;;4889738;29;20041;-90
2023/02/13 00:22:47;;;;;;;29.50;17.00;;;7.80;99.90;;;;;;4902639;29;20045;-92
2023/02/13 00:25:12;;;;;;;34.25;20.23;;;7.80;99.90;;;;;;4898537;29;20045;-91
2023/02/13 00:27:38;;;;;;;21.52;14.23;;;7.80;99.90;;;;;;4902171;29;20100;-92
2023/02/13 00:30:04;;;;;;;24.25;14.40;;;7.90;99.90;;;;;;4898115;29;20093;-92
2023/02/13 00:32:30;;;;;;;21.40;13.50;;;7.80;99.90;;;;;;4883031;29;20513;-92
2023/02/13 00:34:57;;;;;;;22.50;14.00;;;7.80;99.90;;;;;;4885369;29;20041;-92
2023/02/13 00:37:23;;;;;;;29.05;17.92;;;7.80;99.90;;;;;;4901885;29;20463;-92
2023/02/13 00:39:49;;;;;;;15.90;11.00;;;7.80;99.90;;;;;;4897112;29;20170;-92
2023/02/13 00:42:14;;;;;;;30.08;18.40;;;7.80;99.90;;;;;;4899574;29;20096;-92
2023/02/13 00:44:40;;;;;;;20.33;11.90;;;7.90;99.90;;;;;;4889070;29;20076;-92
2023/02/13 00:47:05;;;;;;;16.77;10.70;;;7.80;99.90;;;;;;4884073;29;20548;-92
2023/02/13 00:49:31;;;;;;;16.77;10.48;;;7.80;99.90;;;;;;4898459;29;20045;-92
2023/02/13 00:51:57;;;;;;;13.35;9.55;;;7.80;99.90;;;;;;4897253;29;20438;-93
2023/02/13 00:54:25;;;;;;;18.35;12.27;;;7.80;99.90;;;;;;4885664;29;20049;-92
2023/02/13 00:56:50;;;;;;;23.05;14.75;;;7.80;99.90;;;;;;4894185;29;20045;-92
2023/02/13 00:59:16;;;;;;;28.33;16.67;;;7.80;99.90;;;;;;4885636;29;20557;-91
2023/02/13 01:01:42;;;;;;;28.60;18.83;;;7.80;99.90;;;;;;4902097;29;20055;-92
2023/02/13 01:04:08;;;;;;;18.15;12.13;;;7.80;99.90;;;;;;4901113;29;20052;-92
2023/02/13 01:06:36;;;;;;;19.80;13.73;;;7.80;99.90;;;;;;4892787;29;20057;-91
2023/02/13 01:09:03;;;;;;;24.65;14.27;;;7.70;99.90;;;;;;4894506;29;20048;-92
2023/02/13 01:11:28;;;;;;;24.52;13.73;;;7.80;99.90;;;;;;4892429;29;20128;-92
2023/02/13 01:13:54;;;;;;;22.98;13.70;;;7.70;99.90;;;;;;4892815;29;20083;-92
2023/02/13 01:16:20;;;;;;;21.65;13.80;;;7.80;99.90;;;;;;4893438;29;20155;-92
2023/02/13 01:18:48;;;;;;;21.52;12.40;;;7.70;99.90;;;;;;4892526;29;20041;-91
2023/02/13 01:21:17;;;;;;;26.02;15.63;;;7.70;99.90;;;;;;4900558;29;20136;-91
2023/02/13 01:23:43;;;;;;;27.52;16.98;;;7.70;99.90;;;;;;4902130;29;20466;-91
2023/02/13 01:26:15;;;;;;;18.63;12.15;;;7.70;99.90;;;;;;4900089;29;20037;-92
2023/02/13 01:28:40;;;;;;;21.90;12.95;;;7.70;99.90;;;;;;4899907;29;20129;-91
2023/02/13 01:31:06;;;;;;;30.13;16.88;;;7.70;99.90;;;;;;4890105;29;20115;-91
2023/02/13 01:33:32;;;;;;;22.35;14.57;;;7.70;99.90;;;;;;4903000;23;20055;-91
2023/02/13 01:35:59;;;;;;;24.45;14.50;;;7.70;99.90;;;;;;4900387;29;20099;-91
2023/02/13 01:38:24;;;;;;;22.40;13.20;;;7.70;99.90;;;;;;4899461;29;20047;-91
2023/02/13 01:40:52;;;;;;;21.98;13.50;;;7.70;99.90;;;;;;4900903;29;20132;-91
2023/02/13 01:43:18;;;;;;;27.17;16.50;;;7.70;99.90;;;;;;4884714;29;20454;-91
2023/02/13 01:45:47;;;;;;;24.52;14.77;;;7.70;99.90;;;;;;4898262;29;20407;-91
2023/02/13 01:48:25;;;;;;;18.05;11.23;;;7.70;99.90;;;;;;4892556;29;20135;-92
2023/02/13 01:50:56;;;;;;;21.20;12.48;;;7.70;99.90;;;;;;4898971;29;20054;-91
2023/02/13 01:53:34;;;;;;;26.27;16.13;;;7.70;99.90;;;;;;4886557;29;20047;-91
2023/02/13 01:56:24;;;;;;;20.50;12.00;;;7.70;99.90;;;;;;4882701;29;20045;-92
2023/02/13 01:58:53;;;;;;;18.48;11.55;;;7.70;99.90;;;;;;4871931;29;20506;-92
2023/02/13 02:01:20;;;;;;;19.38;11.65;;;7.70;99.90;;;;;;4895844;29;20120;-92
2023/02/13 02:04:09;;;;;;;23.08;13.05;;;7.60;99.90;;;;;;4884564;29;20044;-92
2023/02/13 02:06:43;;;;;;;21.55;12.38;;;7.70;99.90;;;;;;4896840;29;20123;-92
2023/02/13 02:09:17;;;;;;;19.13;11.80;;;7.70;99.90;;;;;;4897151;29;20497;-92
2023/02/13 02:12:08;;;;;;;25.83;15.90;;;7.60;99.90;;;;;;4897460;29;20048;-92
2023/02/13 02:14:34;;;;;;;31.77;19.42;;;7.60;99.90;;;;;;4889211;29;20049;-92
2023/02/13 02:17:02;;;;;;;22.73;13.90;;;7.60;99.90;;;;;;4897913;29;20044;-92
2023/02/13 02:19:49;;;;;;;30.30;17.90;;;7.70;99.90;;;;;;4896431;29;20037;-92
2023/02/13 02:22:51;;;;;;;19.02;11.02;;;7.60;99.90;;;;;;4880870;29;20045;-92
2023/02/13 02:25:23;;;;;;;17.67;11.20;;;7.60;99.90;;;;;;4881392;29;20053;-91
2023/02/13 02:28:04;;;;;;;17.92;11.50;;;7.60;99.90;;;;;;4889858;29;20045;-92
2023/02/13 02:30:44;;;;;;;16.83;10.73;;;7.60;99.90;;;;;;4883918;29;20059;-92
2023/02/13 02:33:35;;;;;;;16.30;11.02;;;7.60;99.90;;;;;;4895990;29;20060;-91
2023/02/13 02:36:07;;;;;;;20.50;12.73;;;7.60;99.90;;;;;;4884163;29;20056;-92
2023/02/13 02:38:50;;;;;;;18.80;11.07;;;7.60;99.90;;;;;;4885438;29;20481;-91
2023/02/13 02:42:10;;;;;;;19.17;11.18;;;7.60;99.90;;;;;;4882365;29;20088;-91
2023/02/13 02:44:49;;;;;;;18.70;11.13;;;7.60;99.90;;;;;;4852009;29;20052;-92
2023/02/13 02:50:13;;;;;;;18.05;11.25;;;7.60;99.90;;;;;;4882373;29;20053;-91
2023/02/13 02:52:45;;;;;;;20.45;11.25;;;7.60;99.90;;;;;;4884917;29;20045;-91
2023/02/13 02:55:37;;;;;;;20.63;11.90;;;7.60;99.90;;;;;;4881689;29;20442;-91
2023/02/13 03:06:45;;;;;;;32.30;18.23;;;7.60;99.90;;;;;;4864687;29;20041;-91
2023/02/13 03:14:47;;;;;;;23.23;13.43;;;7.60;99.90;;;;;;4903137;29;20056;-91
2023/02/13 03:23:15;;;;;;;30.40;16.70;;;7.50;99.90;;;;;;4906790;29;20061;-91
2023/02/13 03:25:51;;;;;;;23.40;13.20;;;7.50;99.90;;;;;;4896936;29;20049;-91
2023/02/13 03:31:33;;;;;;;21.60;12.50;;;7.50;99.90;;;;;;4884569;29;20084;-92
2023/02/13 03:34:09;;;;;;;25.50;13.38;;;7.50;99.90;;;;;;4882751;29;20182;-91
2023/02/13 03:40:08;;;;;;;20.60;12.48;;;7.50;99.90;;;;;;4881672;29;20409;-91
2023/02/13 03:42:39;;;;;;;21.60;14.00;;;7.40;99.90;;;;;;4861011;29;20453;-92
2023/02/13 03:48:08;;;;;;;24.65;13.57;;;7.50;99.90;;;;;;4886912;29;20136;-91
2023/02/13 03:50:37;;;;;;;22.13;13.10;;;7.50;99.90;;;;;;4888558;29;20056;-91
2023/02/13 03:53:10;;;;;;;28.88;14.10;;;7.40;99.90;;;;;;4884008;29;20036;-90
2023/02/13 04:01:24;;;;;;;26.73;14.00;;;7.40;99.90;;;;;;4885081;29;20136;-91
2023/02/13 04:04:04;;;;;;;30.75;14.15;;;7.40;99.90;;;;;;4881378;29;20049;-92
2023/02/13 04:06:35;;;;;;;33.30;14.57;;;7.40;99.90;;;;;;4894870;29;20060;-91
2023/02/13 04:09:01;;;;;;;29.58;14.30;;;7.40;99.90;;;;;;4883393;29;20397;-91
2023/02/13 04:11:33;;;;;;;26.65;13.95;;;7.40;99.90;;;;;;4899034;29;20041;-92
2023/02/13 04:14:03;;;;;;;23.25;13.27;;;7.40;99.90;;;;;;4892604;29;20064;-91
2023/02/13 04:16:36;;;;;;;31.90;15.23;;;7.40;99.90;;;;;;4887478;29;20382;-92
2023/02/13 04:19:03;;;;;;;28.20;14.68;;;7.40;99.90;;;;;;4893782;29;20128;-90
2023/02/13 04:21:37;;;;;;;29.10;15.25;;;7.40;99.90;;;;;;4885246;29;20562;-90
2023/02/13 04:24:03;;;;;;;24.90;13.88;;;7.40;99.90;;;;;;4880496;29;20105;-91
2023/02/13 04:26:35;;;;;;;35.50;14.73;;;7.40;99.90;;;;;;4890908;29;20049;-92
2023/02/13 04:29:01;;;;;;;34.80;15.95;;;7.40;99.90;;;;;;4892022;29;20405;-92
2023/02/13 04:31:26;;;;;;;36.65;20.15;;;7.40;99.90;;;;;;4894469;29;20053;-91
2023/02/13 04:33:52;;;;;;;27.35;13.93;;;7.40;99.90;;;;;;4879387;29;20053;-91
2023/02/13 04:36:17;;;;;;;21.73;13.00;;;7.30;99.90;;;;;;4885517;29;20049;-91
2023/02/13 04:38:44;;;;;;;22.23;13.32;;;7.40;99.90;;;;;;4890346;29;20041;-92
2023/02/13 04:41:10;;;;;;;33.35;18.20;;;7.40;99.90;;;;;;4894683;29;20493;-92
2023/02/13 04:43:36;;;;;;;26.77;13.50;;;7.40;99.90;;;;;;4888257;29;20037;-91
2023/02/13 04:46:02;;;;;;;24.33;13.23;;;7.40;99.90;;;;;;4890782;29;20045;-91
2023/02/13 04:48:31;;;;;;;26.48;13.50;;;7.40;99.90;;;;;;4884050;29;20045;-91
2023/02/13 04:50:56;;;;;;;23.38;13.35;;;7.40;99.90;;;;;;4869802;29;20068;-91
2023/02/13 04:53:22;;;;;;;24.13;12.45;;;7.30;99.90;;;;;;4885441;29;20124;-90
2023/02/13 04:55:48;;;;;;;21.58;12.82;;;7.30;99.90;;;;;;4883284;29;20049;-91
2023/02/13 04:58:13;;;;;;;23.38;13.57;;;7.40;99.90;;;;;;4889788;29;20041;-90
2023/02/13 05:00:39;;;;;;;22.17;12.63;;;7.30;99.90;;;;;;4894976;29;20045;-91
2023/02/13 05:03:10;;;;;;;21.20;12.73;;;7.30;99.90;;;;;;4891514;29;20482;-92
2023/02/13 05:05:37;;;;;;;29.85;17.23;;;7.30;99.90;;;;;;4907384;29;20077;-91
2023/02/13 05:08:04;;;;;;;22.60;13.82;;;7.30;99.90;;;;;;4897442;29;20041;-91
2023/02/13 05:10:29;;;;;;;25.17;13.98;;;7.40;99.90;;;;;;4888244;29;20093;-91
2023/02/13 05:12:55;;;;;;;23.88;12.63;;;7.30;99.90;;;;;;4889601;29;20044;-91
2023/02/13 05:15:22;;;;;;;26.83;13.43;;;7.30;99.90;;;;;;4896278;29;20482;-90
2023/02/13 05:17:48;;;;;;;24.63;12.48;;;7.30;99.90;;;;;;4887778;29;20143;-91
2023/02/13 05:20:14;;;;;;;24.00;13.10;;;7.30;99.90;;;;;;4882257;29;20553;-92
2023/02/13 05:25:30;;;;;;;25.27;13.85;;;7.40;99.90;;;;;;4911408;29;20052;-92
2023/02/13 05:27:56;;;;;;;25.17;13.45;;;7.30;99.90;;;;;;4899142;29;20100;-92
2023/02/13 05:30:21;;;;;;;24.70;14.25;;;7.30;99.90;;;;;;4888391;29;20037;-92
2023/02/13 05:44:13;;;;;;;29.88;15.25;;;7.30;99.90;;;;;;5384154;23;20057;-93
2023/02/13 05:46:45;;;;;;;29.65;14.73;;;7.30;99.90;;;;;;4884150;29;20056;-94
2023/02/13 05:49:14;;;;;;;25.30;14.63;;;7.30;99.90;;;;;;4883888;29;20045;-94
2023/02/13 05:52:10;;;;;;;23.75;14.07;;;7.30;99.90;;;;;;4883490;29;20052;-94
2023/02/13 05:54:38;;;;;;;27.23;14.88;;;7.30;99.90;;;;;;4934880;23;20059;-93
2023/02/13 05:57:26;;;;;;;27.60;14.18;;;7.30;99.90;;;;;;4865077;29;20048;-93
2023/02/13 05:59:52;;;;;;;31.15;15.60;;;7.30;99.90;;;;;;4865098;29;20036;-91
2023/02/13 06:02:33;;;;;;;29.88;14.55;;;7.20;99.90;;;;;;4865004;29;20517;-91
2023/02/13 06:04:58;;;;;;;26.13;14.63;;;7.20;99.90;;;;;;4861442;29;20402;-91
2023/02/13 06:07:28;;;;;;;23.08;13.82;;;7.30;99.90;;;;;;4881996;29;20049;-93
2023/02/13 06:09:53;;;;;;;28.23;14.93;;;7.30;99.90;;;;;;4848467;29;20049;-93
2023/02/13 06:12:21;;;;;;;25.92;14.10;;;7.20;99.90;;;;;;4856937;29;20119;-95
2023/02/13 06:15:44;;;;;;;28.60;13.85;;;7.20;99.90;;;;;;4879436;24;20489;-94
2023/02/13 06:18:24;;;;;;;27.08;13.40;;;7.10;99.90;;;;;;5051594;23;20043;31
2023/02/13 06:20:50;;;;;;;24.27;13.98;;;7.20;99.90;;;;;;4842753;29;20050;-94
2023/02/13 06:23:18;;;;;;;26.45;13.98;;;7.30;99.90;;;;;;4863680;24;20374;-95
2023/02/13 06:25:47;;;;;;;28.55;14.65;;;7.20;99.90;;;;;;4899526;23;20057;-94
2023/02/13 06:31:22;;;;;;;23.42;13.45;;;7.20;99.90;;;;;;4866914;23;20057;-94
2023/02/13 06:44:08;;;;;;;26.83;14.38;;;7.10;99.90;;;;;;4881573;29;20060;-93
2023/02/13 06:46:48;;;;;;;28.23;13.45;;;7.20;99.90;;;;;;4866683;29;20120;-94
2023/02/13 06:50:09;;;;;;;25.70;13.52;;;7.20;99.90;;;;;;4844413;29;20122;-93
2023/02/13 06:56:35;;;;;;;23.98;12.73;;;7.10;99.90;;;;;;4900371;23;20469;-94
2023/02/13 06:59:12;;;;;;;23.50;12.93;;;7.10;99.90;;;;;;4887261;23;20048;-95
2023/02/13 07:02:16;;;;;;;20.25;11.80;;;7.10;99.90;;;;;;4872229;29;20056;-94
2023/02/13 07:07:15;;;;;;;23.58;13.73;;;7.10;99.90;;;;;;4924979;23;20090;-94
2023/02/13 07:10:05;;;;;;;23.00;13.50;;;7.10;99.90;;;;;;4849934;29;20483;-95
2023/02/13 07:12:49;;;;;;;22.70;13.98;;;7.10;99.90;;;;;;4849129;29;20045;-95
2023/02/13 07:15:15;;;;;;;21.40;13.48;;;7.10;99.90;;;;;;4864438;29;20037;-95
2023/02/13 07:17:44;;;;;;;22.92;12.82;;;7.10;99.90;;;;;;4865322;29;20574;-94
2023/02/13 07:20:19;;;;;;;24.85;13.23;;;7.10;99.90;;;;;;4866038;29;20044;-96
2023/02/13 07:22:47;;;;;;;25.55;14.55;;;7.10;99.90;;;;;;4866490;29;20085;-95
2023/02/13 07:25:19;;;;;;;30.90;17.08;;;7.10;99.90;;;;;;4865979;29;20041;-95
2023/02/13 07:27:55;;;;;;;23.50;13.43;;;7.20;99.90;;;;;;4833282;29;20474;-95
2023/02/13 07:30:20;;;;;;;22.30;13.43;;;7.10;99.90;;;;;;4849077;29;20037;-93
2023/02/13 07:32:54;;;;;;;22.60;13.50;;;7.10;99.90;;;;;;4850206;29;20041;-95
2023/02/13 07:35:29;;;;;;;;;;;7.10;99.90;;;;;;4853461;29;20474;-95
2023/02/13 07:37:55;;;;;;;21.10;12.75;;;7.10;99.90;;;;;;4854226;29;19924;-96
2023/02/13 07:40:23;;;;;;;25.00;14.63;;;7.10;99.90;;;;;;4850245;29;20076;-93
2023/02/13 07:42:55;;;;;;;27.52;14.93;;;7.10;99.90;;;;;;4861651;29;20045;-93
2023/02/13 07:45:21;;;;;;;25.02;13.55;;;7.10;99.90;;;;;;4862858;29;20056;-92
2023/02/13 07:47:55;;;;;;;22.33;14.00;;;7.10;99.90;;;;;;4862343;29;20049;-93
2023/02/13 07:50:20;;;;;;;29.92;16.30;;;7.10;99.90;;;;;;4846155;29;20081;-92
2023/02/13 07:53:01;;;;;;;23.88;14.27;;;7.10;99.90;;;;;;4845994;29;20424;-92
2023/02/13 07:55:28;;;;;;;23.17;13.80;;;7.10;99.90;;;;;;4862862;29;20098;-92
2023/02/13 07:57:53;;;;;;;25.13;14.48;;;7.10;99.90;;;;;;4846162;29;20052;-93
2023/02/13 08:00:20;;;;;;;21.83;13.85;;;7.10;99.90;;;;;;4862192;29;20041;-93
2023/02/13 08:02:49;;;;;;;25.98;14.25;;;7.10;99.90;;;;;;4846613;29;20093;-92
2023/02/13 08:05:14;;;;;;;25.92;13.93;;;7.20;99.90;;;;;;4845721;29;20136;-94
2023/02/13 08:07:40;;;;;;;23.48;14.07;;;7.20;99.90;;;;;;4838195;29;20514;-93
2023/02/13 08:12:53;;;;;;;27.55;15.48;;;7.10;99.90;;;;;;4827810;29;20054;-93
2023/02/13 08:15:19;;;;;;;28.38;16.25;;;7.10;99.90;;;;;;4827186;29;20057;-93
2023/02/13 08:17:44;;;;;;;20.70;12.80;;;7.10;99.90;;;;;;4827667;29;20050;-93
2023/02/13 08:20:12;;;;;;;22.40;14.02;;;7.20;99.90;;;;;;4827689;29;20045;-92
2023/02/13 08:22:38;;;;;;;32.85;18.17;;;7.20;99.90;;;;;;4827147;29;20145;-92
2023/02/13 08:25:05;;;;;;;25.45;14.50;;;7.20;99.90;;;;;;4844030;29;20053;-93
2023/02/13 08:27:31;;;;;;;26.33;13.93;;;7.20;99.90;;;;;;4845960;29;20056;-93
2023/02/13 08:29:57;;;;;;;26.35;13.57;;;7.20;99.90;;;;;;4847525;29;20053;-93
2023/02/13 08:32:26;;;;;;;22.27;13.70;;;7.20;99.90;;;;;;4847612;29;20050;-93
2023/02/13 08:34:51;;;;;;;32.80;18.08;;;7.20;99.90;;;;;;4830651;29;20046;-94
2023/02/13 08:37:17;;;;;;;23.95;13.88;;;7.20;99.90;;;;;;4831071;29;20057;-93
2023/02/13 08:39:43;;;;;;;22.35;13.65;;;7.20;99.90;;;;;;4831050;29;20078;-93
2023/02/13 08:42:09;;;;;;;20.15;12.63;;;7.20;99.90;;;;;;4830558;29;20054;-93
2023/02/13 08:44:39;;;;;;;22.58;12.27;;;7.20;99.90;;;;;;4830174;29;20081;-93
2023/02/13 08:47:08;;;;;;;26.42;13.30;;;7.30;99.90;;;;;;4830167;29;20045;-93
2023/02/13 08:49:34;;;;;;;25.50;15.10;;;7.20;99.90;;;;;;4830081;29;20482;-93
2023/02/13 08:52:01;;;;;;;21.65;13.30;;;7.20;99.90;;;;;;4830481;29;20070;-93
2023/02/13 08:54:27;;;;;;;29.73;16.38;;;7.20;99.90;;;;;;4830613;29;20037;-93
2023/02/13 08:56:55;;;;;;;23.55;13.65;;;7.20;99.90;;;;;;4831136;29;20479;-94
2023/02/13 08:59:21;;;;;;;24.58;13.30;;;7.20;99.90;;;;;;4830216;29;20252;-93
2023/02/13 09:01:50;;;;;;;27.38;13.40;;;7.20;99.90;;;;;;4847188;29;20558;-93
2023/02/13 09:04:17;;;;;;;25.00;15.05;;;7.20;99.90;;;;;;4830382;29;20077;-93
2023/02/13 09:06:43;;;;;;;22.20;13.57;;;7.20;99.90;;;;;;4830364;29;20050;-93
2023/02/13 09:09:08;;;;;;;29.77;15.75;;;7.30;99.90;;;;;;4846695;29;20062;-93
2023/02/13 09:11:34;;;;;;;22.95;14.07;;;7.30;99.90;;;;;;4830253;29;20053;-93
2023/02/13 09:14:00;;;;;;;27.77;14.95;;;7.30;99.90;;;;;;4901097;23;20053;-93
2023/02/13 09:16:25;;;;;;;25.27;13.05;;;7.30;99.90;;;;;;4866981;29;20104;-94
2023/02/13 09:18:51;;;;;;;28.98;16.02;;;7.30;99.90;;;;;;4883769;29;20200;-93
2023/02/13 09:21:22;;;;;;;30.88;17.73;;;7.30;99.90;;;;;;4883095;29;20505;-93
2023/02/13 09:23:49;;;;;;;35.08;17.80;;;7.30;99.90;;;;;;4883845;29;20085;-92
2023/02/13 09:26:16;;;;;;;23.05;13.52;;;7.30;99.90;;;;;;4882306;29;20057;-92
2023/02/13 09:28:42;;;;;;;35.38;18.90;;;7.30;99.90;;;;;;4867139;29;20052;-92
2023/02/13 09:31:10;;;;;;;28.50;16.92;;;7.30;99.90;;;;;;4883173;29;20459;-93
2023/02/13 09:33:37;;;;;;;23.67;12.98;;;7.30;99.90;;;;;;4866544;29;20062;-93
2023/02/13 09:36:07;;;;;;;23.85;14.57;;;7.40;99.90;;;;;;4883240;29;20483;-93
2023/02/13 09:38:33;;;;;;;23.05;14.07;;;7.30;99.90;;;;;;4866395;29;20500;-93
2023/02/13 09:41:06;;;;;;;26.52;14.13;;;7.40;99.90;;;;;;4867128;29;20127;-93
2023/02/13 09:43:39;;;;;;;22.17;13.50;;;7.40;99.90;;;;;;4866970;29;20083;-93
2023/02/13 09:46:24;;;;;;;20.98;13.07;;;7.40;99.90;;;;;;4866797;29;20049;-92
2023/02/13 09:48:54;;;;;;;24.73;15.40;;;7.40;99.90;;;;;;4866845;29;20139;-93
2023/02/13 09:51:22;;;;;;;26.10;15.02;;;7.40;99.90;;;;;;4866903;29;20115;-94
2023/02/13 09:53:56;;;;;;;32.25;17.70;;;7.40;99.90;;;;;;4865959;29;20041;-93
2023/02/13 09:56:31;;;;;;;23.30;14.10;;;7.40;99.90;;;;;;4866325;29;20053;-94
2023/02/13 09:59:35;;;;;;;23.77;13.88;;;7.40;99.90;;;;;;4883163;29;20049;-94
2023/02/13 10:02:31;;;;;;;27.52;15.98;;;7.40;99.90;;;;;;4856798;29;20095;-93
2023/02/13 10:05:10;;;;;;;36.25;17.40;;;7.40;99.90;;;;;;4866285;29;20053;-94
2023/02/13 10:07:42;;;;;;;24.75;14.25;;;7.50;99.90;;;;;;4900815;23;20055;-93
2023/02/13 10:10:22;;;;;;;26.55;14.95;;;7.50;99.90;;;;;;4900511;29;20052;-94
2023/02/13 10:13:09;;;;;;;26.00;15.35;;;7.50;99.90;;;;;;4900404;29;20044;-94
2023/02/13 10:15:47;;;;;;;22.00;12.65;;;7.50;99.90;;;;;;4901378;29;20060;-94
2023/02/13 10:18:18;;;;;;;23.52;13.80;;;7.50;99.90;;;;;;4900208;29;20048;-93
2023/02/13 10:20:51;;;;;;;30.33;16.15;;;7.50;99.90;;;;;;4901516;29;20076;-93
2023/02/13 10:23:43;;;;;;;30.40;16.85;;;7.60;99.90;;;;;;4900240;29;20069;-94
2023/02/13 10:26:44;;;;;;;26.98;15.50;;;7.60;99.90;;;;;;4900001;29;20051;-94
2023/02/13 10:32:02;;;;;;;26.27;14.85;;;7.60;99.90;;;;;;4914518;29;20489;-92
2023/02/13 10:35:28;;;;;;;32.88;17.73;;;7.60;99.90;;;;;;4883148;29;20040;-96
2023/02/13 10:38:23;;;;;;;24.17;14.45;;;7.70;99.90;;;;;;4877133;29;20061;-96
2023/02/13 11:02:50;;;;;;;25.67;14.95;;;7.70;99.90;;;;;;4901633;29;20057;-96
2023/02/13 11:09:06;;;;;;;30.40;16.27;;;7.90;99.90;;;;;;4875749;29;20498;-94
2023/02/13 11:11:51;;;;;;;28.30;15.55;;;7.90;99.90;;;;;;4882219;29;20081;-94
2023/02/13 11:15:00;;;;;;;27.40;15.18;;;7.90;99.90;;;;;;4857916;29;20065;-94
2023/02/13 11:17:46;;;;;;;24.88;14.23;;;7.90;99.90;;;;;;4861240;29;20117;-95
2023/02/13 11:20:46;;;;;;;28.02;15.52;;;7.90;99.90;;;;;;4864161;29;20042;-94
2023/02/13 11:23:30;;;;;;;26.30;14.52;;;7.90;99.90;;;;;;4846199;29;20111;-95
2023/02/13 11:29:28;;;;;;;31.15;15.85;;;8.00;99.90;;;;;;4829558;29;20521;-94
2023/02/13 11:32:21;;;;;;;26.02;14.80;;;8.00;99.90;;;;;;4842773;29;20046;-94
2023/02/13 11:35:33;;;;;;;28.97;15.37;;;8.00;99.90;;;;;;4840740;29;20049;-94
2023/02/13 11:41:42;;;;;;;27.65;15.20;;;8.00;99.90;;;;;;4839444;29;20061;-94
2023/02/13 11:44:53;;;;;;;25.33;14.32;;;8.10;99.90;;;;;;4875674;24;20635;-93
2023/02/13 11:47:59;;;;;;;25.15;14.18;;;8.10;99.90;;;;;;4852163;29;20081;-94
2023/02/13 11:53:24;;;;;;;25.85;14.52;;;8.20;99.90;;;;;;4886254;23;20067;-94
2023/02/13 11:56:16;;;;;;;27.45;15.45;;;8.20;99.90;;;;;;4851936;29;20044;-94
2023/02/13 11:59:15;;;;;;;30.60;16.70;;;8.20;99.90;;;;;;4853841;29;20056;-96
2023/02/13 12:07:32;;;;;;;26.35;14.52;;;8.30;99.90;;;;;;4857995;29;20120;-93
2023/02/13 12:10:45;;;;;;;25.58;14.80;;;8.30;99.90;;;;;;4861858;29;20060;-93
2023/02/13 12:14:29;;;;;;;26.65;15.10;;;8.30;99.90;;;;;;4860551;29;20054;-93
2023/02/13 12:18:19;;;;;;;22.30;14.70;;;8.40;99.90;;;;;;4768619;30;20060;-91
2023/02/13 12:21:16;;;;;;;;;;;;;;;;;;;;;
2023/02/13 12:35:21;;;;;;;26.33;15.80;;;8.50;99.90;;;;;;4784424;30;20592;-94
2023/02/13 12:51:33;;;;;;;26.33;16.70;;;8.80;99.90;;;;;;4878076;29;20044;-93
2023/02/13 13:00:59;;;;;;;23.77;15.88;;;8.90;99.90;;;;;;4880222;29;20533;-95
2023/02/13 13:03:27;;;;;;;28.73;18.25;;;9.00;99.90;;;;;;4873915;29;20049;-94
2023/02/13 13:06:18;;;;;;;27.98;18.45;;;9.00;99.90;;;;;;4863720;29;20056;-93
2023/02/13 13:09:04;;;;;;;21.92;14.68;;;9.00;99.90;;;;;;4880732;29;20056;-93
2023/02/13 13:11:44;;;;;;;25.48;17.15;;;9.10;99.90;;;;;;4861114;29;20045;-92
2023/02/13 13:14:31;;;;;;;27.60;18.02;;;9.10;99.90;;;;;;4871265;29;20065;-92
2023/02/13 13:17:03;;;;;;;26.40;18.48;;;9.10;99.90;;;;;;4864603;29;20037;-90
2023/02/13 13:19:51;;;;;;;20.92;16.17;;;9.10;99.90;;;;;;4862410;29;20383;-92
2023/02/13 13:22:33;;;;;;;19.60;15.27;;;9.20;99.90;;;;;;4866633;29;20057;-92
2023/02/13 13:25:19;;;;;;;19.15;16.15;;;9.20;99.90;;;;;;4866627;29;20052;-93
2023/02/13 13:27:49;;;;;;;20.88;16.30;;;9.20;99.90;;;;;;4866039;29;20053;-91
2023/02/13 13:30:28;;;;;;;19.45;15.90;;;9.20;99.90;;;;;;4881686;29;20041;-90
2023/02/13 13:33:10;;;;;;;21.33;16.40;;;9.30;99.90;;;;;;4865836;29;20136;-91
2023/02/13 13:35:41;;;;;;;24.80;18.95;;;9.30;99.90;;;;;;4861072;29;20053;-91
2023/02/13 13:38:50;;;;;;;20.20;14.95;;;9.30;99.90;;;;;;4865283;29;20468;-91
2023/02/13 13:41:42;;;;;;;23.13;17.52;;;9.30;99.90;;;;;;4858793;29;20084;-91
2023/02/13 13:44:26;;;;;;;22.20;15.45;;;9.30;99.90;;;;;;4864829;29;20228;-90
2023/02/13 13:47:10;;;;;;;22.63;18.10;;;9.40;99.90;;;;;;4865637;29;20424;-91
2023/02/13 13:49:58;;;;;;;21.90;17.45;;;9.40;99.90;;;;;;4881995;29;20051;-90
2023/02/13 13:52:26;;;;;;;21.27;16.85;;;9.50;99.90;;;;;;4882460;29;20045;-93
2023/02/13 13:54:52;;;;;;;23.20;18.02;;;9.40;99.90;;;;;;4866087;29;20064;-95
2023/02/13 13:57:39;;;;;;;21.60;16.67;;;9.50;99.90;;;;;;4867236;29;20057;-94
2023/02/13 14:00:08;;;;;;;23.48;19.08;;;9.50;99.90;;;;;;4886190;23;20044;-92
2023/02/13 14:03:17;;;;;;;30.05;20.20;;;9.50;99.90;;;;;;4898823;29;20052;-93
2023/02/13 14:06:21;;;;;;;25.90;20.75;;;9.50;99.90;;;;;;4880462;29;20104;-90
2023/02/13 14:08:48;;;;;;;29.20;21.65;;;9.60;99.90;;;;;;4881502;29;20413;-91
2023/02/13 14:11:25;;;;;;;28.98;21.67;;;9.50;99.90;;;;;;4881573;29;20459;-91
2023/02/13 14:13:51;;;;;;;25.75;20.00;;;9.50;99.90;;;;;;4880338;29;20049;-90
2023/02/13 14:16:38;;;;;;;25.98;20.23;;;9.60;99.90;;;;;;4880093;29;20045;-90
2023/02/13 14:19:05;;;;;;;24.23;19.50;;;9.60;99.90;;;;;;4880392;29;20045;-90
2023/02/13 14:21:31;;;;;;;23.75;19.10;;;9.60;99.90;;;;;;4881172;29;20053;-90
2023/02/13 14:24:02;;;;;;;28.85;22.92;;;9.60;99.90;;;;;;4881216;29;20101;-91
2023/02/13 14:26:37;;;;;;;26.92;21.33;;;9.60;99.90;;;;;;4880703;29;20045;-91
2023/02/13 14:29:31;;;;;;;26.20;20.17;;;9.60;99.90;;;;;;4880351;29;20450;-91
2023/02/13 14:32:17;;;;;;;25.02;20.25;;;9.60;99.90;;;;;;4878713;29;20132;-91
2023/02/13 14:34:52;;;;;;;25.25;21.15;;;9.60;99.90;;;;;;4879955;29;20144;-90
2023/02/13 14:37:29;;;;;;;26.10;21.20;;;9.60;99.90;;;;;;4879796;29;20091;-91
2023/02/13 14:40:16;;;;;;;27.38;20.92;;;9.60;99.90;;;;;;4881553;29;20045;-93
2023/02/13 14:42:56;;;;;;;23.02;19.02;;;9.60;99.90;;;;;;4879474;29;20490;-93
2023/02/13 14:45:31;;;;;;;24.80;20.10;;;9.60;99.90;;;;;;4879714;29;20056;-90
2023/02/13 14:48:01;;;;;;;25.95;21.52;;;9.60;99.90;;;;;;4879396;29;20119;-90
2023/02/13 14:50:47;;;;;;;24.73;20.90;;;9.70;99.90;;;;;;4880713;29;20053;-90
2023/02/13 14:53:39;;;;;;;26.40;20.05;;;9.60;99.90;;;;;;4881071;29;20044;-90
2023/02/13 14:56:11;;;;;;;27.77;21.58;;;9.70;99.90;;;;;;4878800;29;20135;-90
2023/02/13 14:58:57;;;;;;;25.03;20.97;;;9.70;99.90;;;;;;4879829;29;20049;-90
2023/02/13 15:01:33;;;;;;;24.38;20.88;;;9.70;99.90;;;;;;4879084;29;20501;-90
2023/02/13 15:04:17;;;;;;;27.90;22.83;;;9.60;99.90;;;;;;4895098;29;20092;-90
2023/02/13 15:06:44;;;;;;;27.38;21.75;;;9.70;99.90;;;;;;4879334;29;20136;-90
2023/02/13 15:09:37;;;;;;;28.25;21.83;;;9.70;99.90;;;;;;4879119;29;20193;-90
2023/02/13 15:12:03;;;;;;;26.38;22.27;;;9.70;99.90;;;;;;4875276;29;20060;-90
2023/02/13 15:14:34;;;;;;;28.10;22.90;;;9.60;99.90;;;;;;4879901;29;20531;-89
2023/02/13 15:17:07;;;;;;;28.80;23.08;;;9.70;99.90;;;;;;4879592;29;20532;-89
2023/02/13 15:19:37;;;;;;;26.58;21.80;;;9.70;99.90;;;;;;4879434;29;20053;-89
2023/02/13 15:22:05;;;;;;;27.77;23.23;;;9.70;99.90;;;;;;4884789;29;20180;-87
2023/02/13 15:24:46;;;;;;;26.67;22.23;;;9.70;99.90;;;;;;4897201;29;20052;-87
2023/02/13 15:27:18;;;;;;;28.02;24.15;;;9.70;99.90;;;;;;4898204;29;20055;-87
2023/02/13 15:30:17;;;;;;;26.33;22.17;;;9.70;99.90;;;;;;4876570;23;20057;-88
2023/02/13 15:32:42;;;;;;;26.92;21.55;;;9.60;99.90;;;;;;4856992;29;20325;-87
2023/02/13 15:35:22;;;;;;;29.38;22.42;;;9.60;99.90;;;;;;4860487;29;20510;-87
2023/02/13 15:37:47;;;;;;;29.02;23.88;;;9.60;99.90;;;;;;4859825;29;20088;-87
2023/02/13 15:40:39;;;;;;;28.48;22.90;;;9.60;99.90;;;;;;4860748;29;20070;-88
2023/02/13 15:43:22;;;;;;;30.23;24.25;;;9.60;99.90;;;;;;4861324;29;20063;-88
2023/02/13 15:45:49;;;;;;;27.40;23.70;;;9.60;99.90;;;;;;4875695;29;20078;-91
2023/02/13 15:48:16;;;;;;;27.92;22.48;;;9.60;99.90;;;;;;4880046;29;20044;-90